sensor_id;sensor_type;location;lat;lon;timestamp;temperature;humidity
70166;SHT30;57541;47.408;18.822;2023-07-22T00:00:28;17.04;99.99
70166;SHT30;57541;47.408;18.822;2023-07-22T00:01:00;17.08;99.99
70166;SHT30;57541;47.408;18.822;2023-07-22T00:01:32;17.10;99.99
70166;SHT30;57541;47.408;18.822;2023-07-22T00:02:04;17.08;99.99
70166;SHT30;57541;47.408;18.822;2023-07-22T00:02:36;17.06;99.99
70166;SHT30;57541;47.408;18.822;2023-07-22T00:03:07;17.03;99.99
70166;SHT30;57541;47.408;18.822;2023-07-22T00:03:39;17.04;99.99
70166;SHT30;57541;47.408;18.822;2023-07-22T00:04:11;17.07;99.99
70166;SHT30;57541;47.408;18.822;2023-07-22T00:04:43;17.08;99.99
70166;SHT30;57541;47.408;18.822;2023-07-22T00:05:15;17.08;99.99
70166;SHT30;57541;47.408;18.822;2023-07-22T00:05:47;17.11;99.99
70166;SHT30;57541;47.408;18.822;2023-07-22T00:06:18;17.14;99.99
70166;SHT30;57541;47.408;18.822;2023-07-22T00:06:50;17.13;99.99
70166;SHT30;57541;47.408;18.822;2023-07-22T00:07:23;17.11;99.99
70166;SHT30;57541;47.408;18.822;2023-07-22T00:07:54;17.13;99.99
70166;SHT30;57541;47.408;18.822;2023-07-22T00:08:26;17.13;99.99
70166;SHT30;57541;47.408;18.822;2023-07-22T00:08:59;17.14;99.99
70166;SHT30;57541;47.408;18.822;2023-07-22T00:09:34;17.11;99.99
70166;SHT30;57541;47.408;18.822;2023-07-22T00:10:07;17.10;99.99
70166;SHT30;57541;47.408;18.822;2023-07-22T00:10:42;17.10;99.99
70166;SHT30;57541;47.408;18.822;2023-07-22T00:11:14;17.08;99.99
70166;SHT30;57541;47.408;18.822;2023-07-22T00:11:49;17.00;99.99
70166;SHT30;57541;47.408;18.822;2023-07-22T00:12:21;17.06;99.99
70166;SHT30;57541;47.408;18.822;2023-07-22T00:12:56;16.93;99.99
70166;SHT30;57541;47.408;18.822;2023-07-22T00:13:29;17.00;99.99
70166;SHT30;57541;47.408;18.822;2023-07-22T00:14:00;17.03;99.99
70166;SHT30;57541;47.408;18.822;2023-07-22T00:14:33;17.08;99.99
70166;SHT30;57541;47.408;18.822;2023-07-22T00:15:05;17.11;99.99
70166;SHT30;57541;47.408;18.822;2023-07-22T00:15:37;17.10;99.99
70166;SHT30;57541;47.408;18.822;2023-07-22T00:16:09;17.02;99.99
70166;SHT30;57541;47.408;18.822;2023-07-22T00:16:42;17.06;99.99
70166;SHT30;57541;47.408;18.822;2023-07-22T00:17:14;16.90;99.99
70166;SHT30;57541;47.408;18.822;2023-07-22T00:17:46;16.99;99.99
70166;SHT30;57541;47.408;18.822;2023-07-22T00:18:17;17.02;99.99
70166;SHT30;57541;47.408;18.822;2023-07-22T00:18:50;17.00;99.99
70166;SHT30;57541;47.408;18.822;2023-07-22T00:19:22;17.00;99.99
70166;SHT30;57541;47.408;18.822;2023-07-22T00:19:55;16.96;99.99
70166;SHT30;57541;47.408;18.822;2023-07-22T00:20:26;17.00;99.99
70166;SHT30;57541;47.408;18.822;2023-07-22T00:20:58;16.99;99.99
70166;SHT30;57541;47.408;18.822;2023-07-22T00:21:30;17.06;99.99
70166;SHT30;57541;47.408;18.822;2023-07-22T00:22:02;17.08;99.99
70166;SHT30;57541;47.408;18.822;2023-07-22T00:22:34;17.13;99.99
70166;SHT30;57541;47.408;18.822;2023-07-22T00:23:05;17.04;99.99
70166;SHT30;57541;47.408;18.822;2023-07-22T00:23:37;17.08;99.99
70166;SHT30;57541;47.408;18.822;2023-07-22T00:24:09;16.97;99.99
70166;SHT30;57541;47.408;18.822;2023-07-22T00:24:42;16.97;99.99
70166;SHT30;57541;47.408;18.822;2023-07-22T00:25:14;17.03;99.99
70166;SHT30;57541;47.408;18.822;2023-07-22T00:25:47;17.07;99.99
70166;SHT30;57541;47.408;18.822;2023-07-22T00:26:18;16.99;99.99
70166;SHT30;57541;47.408;18.822;2023-07-22T00:26:50;17.04;99.99
70166;SHT30;57541;47.408;18.822;2023-07-22T00:27:22;17.02;99.99
70166;SHT30;57541;47.408;18.822;2023-07-22T00:27:53;16.90;99.99
70166;SHT30;57541;47.408;18.822;2023-07-22T00:28:25;16.89;99.99
70166;SHT30;57541;47.408;18.822;2023-07-22T00:28:57;16.87;99.99
70166;SHT30;57541;47.408;18.822;2023-07-22T00:29:28;16.86;99.99
70166;SHT30;57541;47.408;18.822;2023-07-22T00:30:00;16.87;99.99
70166;SHT30;57541;47.408;18.822;2023-07-22T00:30:33;16.90;99.99
70166;SHT30;57541;47.408;18.822;2023-07-22T00:31:09;16.97;99.99
70166;SHT30;57541;47.408;18.822;2023-07-22T00:31:41;16.96;99.99
70166;SHT30;57541;47.408;18.822;2023-07-22T00:32:13;17.03;99.99
70166;SHT30;57541;47.408;18.822;2023-07-22T00:32:45;17.00;99.99
70166;SHT30;57541;47.408;18.822;2023-07-22T00:33:17;17.06;99.99
70166;SHT30;57541;47.408;18.822;2023-07-22T00:33:49;17.07;99.99
70166;SHT30;57541;47.408;18.822;2023-07-22T00:34:21;17.07;99.99
70166;SHT30;57541;47.408;18.822;2023-07-22T00:34:54;17.08;99.99
70166;SHT30;57541;47.408;18.822;2023-07-22T00:35:26;17.07;99.99
70166;SHT30;57541;47.408;18.822;2023-07-22T00:35:58;17.06;99.99
70166;SHT30;57541;47.408;18.822;2023-07-22T00:36:29;17.08;99.99
70166;SHT30;57541;47.408;18.822;2023-07-22T00:37:01;17.07;99.99
70166;SHT30;57541;47.408;18.822;2023-07-22T00:37:33;17.00;99.99
70166;SHT30;57541;47.408;18.822;2023-07-22T00:38:05;17.02;99.99
70166;SHT30;57541;47.408;18.822;2023-07-22T00:38:37;17.00;99.99
70166;SHT30;57541;47.408;18.822;2023-07-22T00:39:09;17.02;99.99
70166;SHT30;57541;47.408;18.822;2023-07-22T00:39:41;17.04;99.99
70166;SHT30;57541;47.408;18.822;2023-07-22T00:40:13;16.99;99.99
70166;SHT30;57541;47.408;18.822;2023-07-22T00:40:45;17.02;99.99
70166;SHT30;57541;47.408;18.822;2023-07-22T00:41:17;16.99;99.99
70166;SHT30;57541;47.408;18.822;2023-07-22T00:41:48;17.00;99.99
70166;SHT30;57541;47.408;18.822;2023-07-22T00:42:20;17.03;99.99
70166;SHT30;57541;47.408;18.822;2023-07-22T00:42:52;17.03;99.99
70166;SHT30;57541;47.408;18.822;2023-07-22T00:43:24;17.02;99.99
70166;SHT30;57541;47.408;18.822;2023-07-22T00:43:57;17.04;99.99
70166;SHT30;57541;47.408;18.822;2023-07-22T00:44:29;17.03;99.99
70166;SHT30;57541;47.408;18.822;2023-07-22T00:45:00;16.97;99.99
70166;SHT30;57541;47.408;18.822;2023-07-22T00:45:32;16.99;99.99
70166;SHT30;57541;47.408;18.822;2023-07-22T00:46:04;17.02;99.99
70166;SHT30;57541;47.408;18.822;2023-07-22T00:46:36;17.03;99.99
70166;SHT30;57541;47.408;18.822;2023-07-22T00:47:08;17.00;99.99
70166;SHT30;57541;47.408;18.822;2023-07-22T00:47:41;17.02;99.99
70166;SHT30;57541;47.408;18.822;2023-07-22T00:48:13;17.00;99.99
70166;SHT30;57541;47.408;18.822;2023-07-22T00:48:46;16.94;99.99
70166;SHT30;57541;47.408;18.822;2023-07-22T00:49:19;16.96;99.99
70166;SHT30;57541;47.408;18.822;2023-07-22T00:49:51;16.96;99.99
70166;SHT30;57541;47.408;18.822;2023-07-22T00:50:24;16.96;99.99
70166;SHT30;57541;47.408;18.822;2023-07-22T00:50:57;16.94;99.99
70166;SHT30;57541;47.408;18.822;2023-07-22T00:51:29;16.97;99.99
70166;SHT30;57541;47.408;18.822;2023-07-22T00:52:01;16.90;99.99
70166;SHT30;57541;47.408;18.822;2023-07-22T00:52:34;16.91;99.99
70166;SHT30;57541;47.408;18.822;2023-07-22T00:53:06;16.89;99.99
70166;SHT30;57541;47.408;18.822;2023-07-22T00:53:38;16.91;99.99
70166;SHT30;57541;47.408;18.822;2023-07-22T00:54:10;16.96;99.99
70166;SHT30;57541;47.408;18.822;2023-07-22T00:54:41;16.99;99.99
70166;SHT30;57541;47.408;18.822;2023-07-22T00:55:13;16.99;99.99
70166;SHT30;57541;47.408;18.822;2023-07-22T00:55:46;16.97;99.99
70166;SHT30;57541;47.408;18.822;2023-07-22T00:56:18;16.96;99.99
70166;SHT30;57541;47.408;18.822;2023-07-22T00:56:54;16.91;99.99
70166;SHT30;57541;47.408;18.822;2023-07-22T00:57:26;16.97;99.99
70166;SHT30;57541;47.408;18.822;2023-07-22T00:57:57;16.99;99.99
70166;SHT30;57541;47.408;18.822;2023-07-22T00:58:29;16.94;99.99
70166;SHT30;57541;47.408;18.822;2023-07-22T00:59:01;16.99;99.99
70166;SHT30;57541;47.408;18.822;2023-07-22T00:59:33;17.04;99.99
70166;SHT30;57541;47.408;18.822;2023-07-22T01:00:05;17.07;99.99
70166;SHT30;57541;47.408;18.822;2023-07-22T01:00:37;17.07;99.99
70166;SHT30;57541;47.408;18.822;2023-07-22T01:01:09;17.08;99.99
70166;SHT30;57541;47.408;18.822;2023-07-22T01:01:41;17.11;99.99
70166;SHT30;57541;47.408;18.822;2023-07-22T01:02:12;17.08;99.99
70166;SHT30;57541;47.408;18.822;2023-07-22T01:02:44;17.11;99.99
70166;SHT30;57541;47.408;18.822;2023-07-22T01:03:17;17.11;99.99
70166;SHT30;57541;47.408;18.822;2023-07-22T01:03:51;17.16;99.99
70166;SHT30;57541;47.408;18.822;2023-07-22T01:04:24;17.14;99.99
70166;SHT30;57541;47.408;18.822;2023-07-22T01:04:56;17.20;99.99
70166;SHT30;57541;47.408;18.822;2023-07-22T01:05:28;17.20;99.99
70166;SHT30;57541;47.408;18.822;2023-07-22T01:06:01;17.26;99.99
70166;SHT30;57541;47.408;18.822;2023-07-22T01:06:35;17.30;99.99
70166;SHT30;57541;47.408;18.822;2023-07-22T01:07:07;17.23;99.99
70166;SHT30;57541;47.408;18.822;2023-07-22T01:07:41;17.26;99.99
70166;SHT30;57541;47.408;18.822;2023-07-22T01:08:13;17.24;99.99
70166;SHT30;57541;47.408;18.822;2023-07-22T01:08:45;17.24;99.99
70166;SHT30;57541;47.408;18.822;2023-07-22T01:09:18;17.24;99.99
70166;SHT30;57541;47.408;18.822;2023-07-22T01:09:56;17.24;99.99
70166;SHT30;57541;47.408;18.822;2023-07-22T01:10:28;17.17;99.99
70166;SHT30;57541;47.408;18.822;2023-07-22T01:11:00;17.17;99.99
70166;SHT30;57541;47.408;18.822;2023-07-22T01:11:31;17.17;99.99
70166;SHT30;57541;47.408;18.822;2023-07-22T01:12:04;17.18;99.99
70166;SHT30;57541;47.408;18.822;2023-07-22T01:12:37;17.13;99.99
70166;SHT30;57541;47.408;18.822;2023-07-22T01:13:09;17.10;99.99
70166;SHT30;57541;47.408;18.822;2023-07-22T01:13:41;17.13;99.99
70166;SHT30;57541;47.408;18.822;2023-07-22T01:14:13;17.10;99.99
70166;SHT30;57541;47.408;18.822;2023-07-22T01:14:45;17.11;99.99
70166;SHT30;57541;47.408;18.822;2023-07-22T01:15:17;17.11;99.99
70166;SHT30;57541;47.408;18.822;2023-07-22T01:15:49;17.07;99.99
70166;SHT30;57541;47.408;18.822;2023-07-22T01:16:21;17.08;99.99
70166;SHT30;57541;47.408;18.822;2023-07-22T01:16:53;17.03;99.99
70166;SHT30;57541;47.408;18.822;2023-07-22T01:17:25;17.07;99.99
70166;SHT30;57541;47.408;18.822;2023-07-22T01:18:02;17.07;99.99
70166;SHT30;57541;47.408;18.822;2023-07-22T01:18:35;17.13;99.99
70166;SHT30;57541;47.408;18.822;2023-07-22T01:19:06;17.14;99.99
70166;SHT30;57541;47.408;18.822;2023-07-22T01:19:40;17.14;99.99
70166;SHT30;57541;47.408;18.822;2023-07-22T01:20:12;17.11;99.99
70166;SHT30;57541;47.408;18.822;2023-07-22T01:20:45;17.13;99.99
70166;SHT30;57541;47.408;18.822;2023-07-22T01:21:18;17.13;99.99
70166;SHT30;57541;47.408;18.822;2023-07-22T01:21:54;17.16;99.99
70166;SHT30;57541;47.408;18.822;2023-07-22T01:22:27;17.17;99.99
70166;SHT30;57541;47.408;18.822;2023-07-22T01:22:59;17.13;99.99
70166;SHT30;57541;47.408;18.822;2023-07-22T01:23:31;17.18;99.99
70166;SHT30;57541;47.408;18.822;2023-07-22T01:24:03;17.10;99.99
70166;SHT30;57541;47.408;18.822;2023-07-22T01:24:35;17.00;99.99
70166;SHT30;57541;47.408;18.822;2023-07-22T01:25:07;17.03;99.99
70166;SHT30;57541;47.408;18.822;2023-07-22T01:25:39;17.03;99.99
70166;SHT30;57541;47.408;18.822;2023-07-22T01:26:12;16.97;99.99
70166;SHT30;57541;47.408;18.822;2023-07-22T01:26:44;16.96;99.99
70166;SHT30;57541;47.408;18.822;2023-07-22T01:27:16;17.00;99.99
70166;SHT30;57541;47.408;18.822;2023-07-22T01:27:48;16.99;99.99
70166;SHT30;57541;47.408;18.822;2023-07-22T01:28:22;17.03;99.99
70166;SHT30;57541;47.408;18.822;2023-07-22T01:29:02;17.00;99.99
70166;SHT30;57541;47.408;18.822;2023-07-22T01:29:34;17.02;99.99
70166;SHT30;57541;47.408;18.822;2023-07-22T01:30:06;17.04;99.99
70166;SHT30;57541;47.408;18.822;2023-07-22T01:30:41;16.99;99.99
70166;SHT30;57541;47.408;18.822;2023-07-22T01:31:14;16.96;99.99
70166;SHT30;57541;47.408;18.822;2023-07-22T01:31:50;16.91;99.99
70166;SHT30;57541;47.408;18.822;2023-07-22T01:32:22;16.93;99.99
70166;SHT30;57541;47.408;18.822;2023-07-22T01:32:54;16.94;99.99
70166;SHT30;57541;47.408;18.822;2023-07-22T01:33:26;16.94;99.99
70166;SHT30;57541;47.408;18.822;2023-07-22T01:33:59;16.97;99.99
70166;SHT30;57541;47.408;18.822;2023-07-22T01:34:30;17.02;99.99
70166;SHT30;57541;47.408;18.822;2023-07-22T01:35:03;17.08;99.99
70166;SHT30;57541;47.408;18.822;2023-07-22T01:35:35;17.03;99.99
70166;SHT30;57541;47.408;18.822;2023-07-22T01:36:07;17.02;99.99
70166;SHT30;57541;47.408;18.822;2023-07-22T01:36:40;16.99;99.99
70166;SHT30;57541;47.408;18.822;2023-07-22T01:37:11;17.04;99.99
70166;SHT30;57541;47.408;18.822;2023-07-22T01:37:43;17.07;99.99
70166;SHT30;57541;47.408;18.822;2023-07-22T01:38:15;16.97;99.99
70166;SHT30;57541;47.408;18.822;2023-07-22T01:38:46;16.99;99.99
70166;SHT30;57541;47.408;18.822;2023-07-22T01:39:18;16.97;99.99
70166;SHT30;57541;47.408;18.822;2023-07-22T01:39:50;16.96;99.99
70166;SHT30;57541;47.408;18.822;2023-07-22T01:40:24;17.00;99.99
70166;SHT30;57541;47.408;18.822;2023-07-22T01:40:56;16.96;99.99
70166;SHT30;57541;47.408;18.822;2023-07-22T01:41:29;17.04;99.99
70166;SHT30;57541;47.408;18.822;2023-07-22T01:42:01;17.07;99.99
70166;SHT30;57541;47.408;18.822;2023-07-22T01:42:33;17.04;99.99
70166;SHT30;57541;47.408;18.822;2023-07-22T01:43:05;17.04;99.99
70166;SHT30;57541;47.408;18.822;2023-07-22T01:43:37;17.07;99.99
70166;SHT30;57541;47.408;18.822;2023-07-22T01:44:09;17.02;99.99
70166;SHT30;57541;47.408;18.822;2023-07-22T01:44:40;17.04;99.99
70166;SHT30;57541;47.408;18.822;2023-07-22T01:45:12;17.03;99.99
70166;SHT30;57541;47.408;18.822;2023-07-22T01:45:44;17.02;99.99
70166;SHT30;57541;47.408;18.822;2023-07-22T01:46:16;17.03;99.99
70166;SHT30;57541;47.408;18.822;2023-07-22T01:46:48;17.06;99.99
70166;SHT30;57541;47.408;18.822;2023-07-22T01:47:20;17.02;99.99
70166;SHT30;57541;47.408;18.822;2023-07-22T01:47:52;17.04;99.99
70166;SHT30;57541;47.408;18.822;2023-07-22T01:48:24;17.03;99.99
70166;SHT30;57541;47.408;18.822;2023-07-22T01:48:56;17.02;99.99
70166;SHT30;57541;47.408;18.822;2023-07-22T01:49:27;16.94;99.99
70166;SHT30;57541;47.408;18.822;2023-07-22T01:49:59;16.99;99.99
70166;SHT30;57541;47.408;18.822;2023-07-22T01:50:32;17.04;99.99
70166;SHT30;57541;47.408;18.822;2023-07-22T01:51:03;17.06;99.99
70166;SHT30;57541;47.408;18.822;2023-07-22T01:51:36;17.07;99.99
70166;SHT30;57541;47.408;18.822;2023-07-22T01:52:09;17.07;99.99
70166;SHT30;57541;47.408;18.822;2023-07-22T01:52:42;17.06;99.99
70166;SHT30;57541;47.408;18.822;2023-07-22T01:53:13;17.02;99.99
70166;SHT30;57541;47.408;18.822;2023-07-22T01:53:45;17.10;99.99
70166;SHT30;57541;47.408;18.822;2023-07-22T01:54:20;17.11;99.99
70166;SHT30;57541;47.408;18.822;2023-07-22T01:54:51;17.13;99.99
70166;SHT30;57541;47.408;18.822;2023-07-22T01:55:23;17.17;99.99
70166;SHT30;57541;47.408;18.822;2023-07-22T01:55:55;17.11;99.99
70166;SHT30;57541;47.408;18.822;2023-07-22T01:56:27;17.10;99.99
70166;SHT30;57541;47.408;18.822;2023-07-22T01:56:59;17.13;99.99
70166;SHT30;57541;47.408;18.822;2023-07-22T01:57:34;17.16;99.99
70166;SHT30;57541;47.408;18.822;2023-07-22T01:58:06;17.20;99.99
70166;SHT30;57541;47.408;18.822;2023-07-22T01:58:38;17.23;99.99
70166;SHT30;57541;47.408;18.822;2023-07-22T01:59:09;17.18;99.99
70166;SHT30;57541;47.408;18.822;2023-07-22T01:59:43;17.21;99.99
70166;SHT30;57541;47.408;18.822;2023-07-22T02:00:14;17.24;99.99
70166;SHT30;57541;47.408;18.822;2023-07-22T02:00:50;17.21;99.99
70166;SHT30;57541;47.408;18.822;2023-07-22T02:01:22;17.20;99.99
70166;SHT30;57541;47.408;18.822;2023-07-22T02:01:53;17.18;99.99
70166;SHT30;57541;47.408;18.822;2023-07-22T02:02:25;17.14;99.99
70166;SHT30;57541;47.408;18.822;2023-07-22T02:02:57;17.17;99.99
70166;SHT30;57541;47.408;18.822;2023-07-22T02:03:30;17.18;99.99
70166;SHT30;57541;47.408;18.822;2023-07-22T02:04:03;17.17;99.99
70166;SHT30;57541;47.408;18.822;2023-07-22T02:04:35;17.11;99.99
70166;SHT30;57541;47.408;18.822;2023-07-22T02:05:08;17.13;99.99
70166;SHT30;57541;47.408;18.822;2023-07-22T02:05:42;17.10;99.99
70166;SHT30;57541;47.408;18.822;2023-07-22T02:06:16;17.06;99.99
70166;SHT30;57541;47.408;18.822;2023-07-22T02:06:49;17.04;99.99
70166;SHT30;57541;47.408;18.822;2023-07-22T02:07:21;17.08;99.99
70166;SHT30;57541;47.408;18.822;2023-07-22T02:07:53;17.02;99.99
70166;SHT30;57541;47.408;18.822;2023-07-22T02:08:26;17.06;99.99
70166;SHT30;57541;47.408;18.822;2023-07-22T02:08:58;17.08;99.99
70166;SHT30;57541;47.408;18.822;2023-07-22T02:09:32;17.13;99.99
70166;SHT30;57541;47.408;18.822;2023-07-22T02:10:04;17.10;99.99
70166;SHT30;57541;47.408;18.822;2023-07-22T02:10:37;17.03;99.99
70166;SHT30;57541;47.408;18.822;2023-07-22T02:11:10;17.06;99.99
70166;SHT30;57541;47.408;18.822;2023-07-22T02:11:41;17.07;99.99
70166;SHT30;57541;47.408;18.822;2023-07-22T02:12:13;17.04;99.99
70166;SHT30;57541;47.408;18.822;2023-07-22T02:12:46;17.04;99.99
70166;SHT30;57541;47.408;18.822;2023-07-22T02:13:18;17.02;99.99
70166;SHT30;57541;47.408;18.822;2023-07-22T02:13:49;16.97;99.99
70166;SHT30;57541;47.408;18.822;2023-07-22T02:14:21;16.94;99.99
70166;SHT30;57541;47.408;18.822;2023-07-22T02:14:53;17.02;99.99
70166;SHT30;57541;47.408;18.822;2023-07-22T02:15:24;17.02;99.99
70166;SHT30;57541;47.408;18.822;2023-07-22T02:15:56;17.04;99.99
70166;SHT30;57541;47.408;18.822;2023-07-22T02:16:29;17.03;99.99
70166;SHT30;57541;47.408;18.822;2023-07-22T02:17:06;17.07;99.99
70166;SHT30;57541;47.408;18.822;2023-07-22T02:17:40;17.10;99.99
70166;SHT30;57541;47.408;18.822;2023-07-22T02:18:13;17.08;99.99
70166;SHT30;57541;47.408;18.822;2023-07-22T02:18:44;17.06;99.99
70166;SHT30;57541;47.408;18.822;2023-07-22T02:19:16;17.06;99.99
70166;SHT30;57541;47.408;18.822;2023-07-22T02:19:48;17.08;99.99
70166;SHT30;57541;47.408;18.822;2023-07-22T02:20:19;17.10;99.99
70166;SHT30;57541;47.408;18.822;2023-07-22T02:20:51;17.10;99.99
70166;SHT30;57541;47.408;18.822;2023-07-22T02:21:23;17.10;99.99
70166;SHT30;57541;47.408;18.822;2023-07-22T02:21:55;17.08;99.99
70166;SHT30;57541;47.408;18.822;2023-07-22T02:22:27;17.06;99.99
70166;SHT30;57541;47.408;18.822;2023-07-22T02:22:58;17.02;99.99
70166;SHT30;57541;47.408;18.822;2023-07-22T02:23:30;17.02;99.99
70166;SHT30;57541;47.408;18.822;2023-07-22T02:24:02;16.94;99.99
70166;SHT30;57541;47.408;18.822;2023-07-22T02:24:35;16.99;99.99
70166;SHT30;57541;47.408;18.822;2023-07-22T02:25:08;17.03;99.99
70166;SHT30;57541;47.408;18.822;2023-07-22T02:25:42;17.02;99.99
70166;SHT30;57541;47.408;18.822;2023-07-22T02:26:14;17.02;99.99
70166;SHT30;57541;47.408;18.822;2023-07-22T02:26:46;16.99;99.99
70166;SHT30;57541;47.408;18.822;2023-07-22T02:27:18;17.02;99.99
70166;SHT30;57541;47.408;18.822;2023-07-22T02:27:50;16.90;99.99
70166;SHT30;57541;47.408;18.822;2023-07-22T02:28:25;16.96;99.99
70166;SHT30;57541;47.408;18.822;2023-07-22T02:28:57;16.84;99.99
70166;SHT30;57541;47.408;18.822;2023-07-22T02:29:29;16.84;99.99
70166;SHT30;57541;47.408;18.822;2023-07-22T02:30:03;16.87;99.99
70166;SHT30;57541;47.408;18.822;2023-07-22T02:30:36;16.94;99.99
70166;SHT30;57541;47.408;18.822;2023-07-22T02:31:08;16.94;99.99
70166;SHT30;57541;47.408;18.822;2023-07-22T02:31:40;16.97;99.99
70166;SHT30;57541;47.408;18.822;2023-07-22T02:32:12;16.93;99.99
70166;SHT30;57541;47.408;18.822;2023-07-22T02:32:44;16.94;99.99
70166;SHT30;57541;47.408;18.822;2023-07-22T02:33:16;16.93;99.99
70166;SHT30;57541;47.408;18.822;2023-07-22T02:33:47;16.93;99.99
70166;SHT30;57541;47.408;18.822;2023-07-22T02:34:19;16.97;99.99
70166;SHT30;57541;47.408;18.822;2023-07-22T02:34:51;16.94;99.99
70166;SHT30;57541;47.408;18.822;2023-07-22T02:35:22;16.90;99.99
70166;SHT30;57541;47.408;18.822;2023-07-22T02:35:54;16.89;99.99
70166;SHT30;57541;47.408;18.822;2023-07-22T02:36:26;16.90;99.99
70166;SHT30;57541;47.408;18.822;2023-07-22T02:36:59;16.91;99.99
70166;SHT30;57541;47.408;18.822;2023-07-22T02:37:32;16.90;99.99
70166;SHT30;57541;47.408;18.822;2023-07-22T02:38:03;16.84;99.99
70166;SHT30;57541;47.408;18.822;2023-07-22T02:38:35;16.89;99.99
70166;SHT30;57541;47.408;18.822;2023-07-22T02:39:07;16.87;99.99
70166;SHT30;57541;47.408;18.822;2023-07-22T02:39:40;16.72;99.99
70166;SHT30;57541;47.408;18.822;2023-07-22T02:40:12;16.84;99.99
70166;SHT30;57541;47.408;18.822;2023-07-22T02:40:44;16.79;99.99
70166;SHT30;57541;47.408;18.822;2023-07-22T02:41:16;16.79;99.99
70166;SHT30;57541;47.408;18.822;2023-07-22T02:41:48;16.80;99.99
70166;SHT30;57541;47.408;18.822;2023-07-22T02:42:20;16.86;99.99
70166;SHT30;57541;47.408;18.822;2023-07-22T02:42:51;16.87;99.99
70166;SHT30;57541;47.408;18.822;2023-07-22T02:43:23;16.87;99.99
70166;SHT30;57541;47.408;18.822;2023-07-22T02:43:55;16.81;99.99
70166;SHT30;57541;47.408;18.822;2023-07-22T02:44:28;16.87;99.99
70166;SHT30;57541;47.408;18.822;2023-07-22T02:45:01;16.90;99.99
70166;SHT30;57541;47.408;18.822;2023-07-22T02:45:34;16.93;99.99
70166;SHT30;57541;47.408;18.822;2023-07-22T02:46:06;16.89;99.99
70166;SHT30;57541;47.408;18.822;2023-07-22T02:46:39;16.94;99.99
70166;SHT30;57541;47.408;18.822;2023-07-22T02:47:13;16.94;99.99
70166;SHT30;57541;47.408;18.822;2023-07-22T02:47:46;16.86;99.99
70166;SHT30;57541;47.408;18.822;2023-07-22T02:48:17;16.91;99.99
70166;SHT30;57541;47.408;18.822;2023-07-22T02:48:49;16.90;99.99
70166;SHT30;57541;47.408;18.822;2023-07-22T02:49:25;16.91;99.99
70166;SHT30;57541;47.408;18.822;2023-07-22T02:49:57;16.87;99.99
70166;SHT30;57541;47.408;18.822;2023-07-22T02:50:28;16.86;99.99
70166;SHT30;57541;47.408;18.822;2023-07-22T02:51:07;16.86;99.99
70166;SHT30;57541;47.408;18.822;2023-07-22T02:51:39;16.89;99.99
70166;SHT30;57541;47.408;18.822;2023-07-22T02:52:11;16.83;99.99
70166;SHT30;57541;47.408;18.822;2023-07-22T02:52:42;16.89;99.99
70166;SHT30;57541;47.408;18.822;2023-07-22T02:53:14;16.84;99.99
70166;SHT30;57541;47.408;18.822;2023-07-22T02:53:46;16.87;99.99
70166;SHT30;57541;47.408;18.822;2023-07-22T02:54:20;16.89;99.99
70166;SHT30;57541;47.408;18.822;2023-07-22T02:55:07;16.90;99.99
70166;SHT30;57541;47.408;18.822;2023-07-22T02:55:39;16.84;99.99
70166;SHT30;57541;47.408;18.822;2023-07-22T02:56:11;16.89;99.99
70166;SHT30;57541;47.408;18.822;2023-07-22T02:56:43;16.90;99.99
70166;SHT30;57541;47.408;18.822;2023-07-22T02:57:15;16.90;99.99
70166;SHT30;57541;47.408;18.822;2023-07-22T02:57:48;16.93;99.99
70166;SHT30;57541;47.408;18.822;2023-07-22T02:58:20;16.94;99.99
70166;SHT30;57541;47.408;18.822;2023-07-22T02:58:51;16.93;99.99
70166;SHT30;57541;47.408;18.822;2023-07-22T02:59:23;16.93;99.99
70166;SHT30;57541;47.408;18.822;2023-07-22T02:59:56;16.91;99.99
70166;SHT30;57541;47.408;18.822;2023-07-22T03:00:28;16.94;99.99
70166;SHT30;57541;47.408;18.822;2023-07-22T03:00:59;16.94;99.99
70166;SHT30;57541;47.408;18.822;2023-07-22T03:01:31;16.97;99.99
70166;SHT30;57541;47.408;18.822;2023-07-22T03:02:04;17.00;99.99
70166;SHT30;57541;47.408;18.822;2023-07-22T03:02:35;16.99;99.99
70166;SHT30;57541;47.408;18.822;2023-07-22T03:03:07;16.93;99.99
70166;SHT30;57541;47.408;18.822;2023-07-22T03:03:39;16.99;99.99
70166;SHT30;57541;47.408;18.822;2023-07-22T03:04:11;16.97;99.99
70166;SHT30;57541;47.408;18.822;2023-07-22T03:04:45;16.96;99.99
70166;SHT30;57541;47.408;18.822;2023-07-22T03:05:17;16.99;99.99
70166;SHT30;57541;47.408;18.822;2023-07-22T03:05:49;16.93;99.99
70166;SHT30;57541;47.408;18.822;2023-07-22T03:06:21;16.93;99.99
70166;SHT30;57541;47.408;18.822;2023-07-22T03:06:53;16.94;99.99
70166;SHT30;57541;47.408;18.822;2023-07-22T03:07:24;16.93;99.99
70166;SHT30;57541;47.408;18.822;2023-07-22T03:07:58;16.94;99.99
70166;SHT30;57541;47.408;18.822;2023-07-22T03:08:30;16.93;99.99
70166;SHT30;57541;47.408;18.822;2023-07-22T03:09:02;16.96;99.99
70166;SHT30;57541;47.408;18.822;2023-07-22T03:09:36;16.96;99.99
70166;SHT30;57541;47.408;18.822;2023-07-22T03:10:08;17.00;99.99
70166;SHT30;57541;47.408;18.822;2023-07-22T03:10:40;16.90;99.99
70166;SHT30;57541;47.408;18.822;2023-07-22T03:11:12;16.86;99.99
70166;SHT30;57541;47.408;18.822;2023-07-22T03:11:44;16.93;99.99
70166;SHT30;57541;47.408;18.822;2023-07-22T03:12:15;16.84;99.99
70166;SHT30;57541;47.408;18.822;2023-07-22T03:12:47;16.86;99.99
70166;SHT30;57541;47.408;18.822;2023-07-22T03:13:19;16.86;99.99
70166;SHT30;57541;47.408;18.822;2023-07-22T03:13:51;16.91;99.99
70166;SHT30;57541;47.408;18.822;2023-07-22T03:14:23;16.89;99.99
70166;SHT30;57541;47.408;18.822;2023-07-22T03:14:55;16.91;99.99
70166;SHT30;57541;47.408;18.822;2023-07-22T03:15:27;16.87;99.99
70166;SHT30;57541;47.408;18.822;2023-07-22T03:16:00;16.89;99.99
70166;SHT30;57541;47.408;18.822;2023-07-22T03:16:38;16.91;99.99
70166;SHT30;57541;47.408;18.822;2023-07-22T03:17:10;16.91;99.99
70166;SHT30;57541;47.408;18.822;2023-07-22T03:17:44;16.89;99.99
70166;SHT30;57541;47.408;18.822;2023-07-22T03:18:16;16.87;99.99
70166;SHT30;57541;47.408;18.822;2023-07-22T03:18:49;16.89;99.99
70166;SHT30;57541;47.408;18.822;2023-07-22T03:19:21;16.86;99.99
70166;SHT30;57541;47.408;18.822;2023-07-22T03:19:53;16.89;99.99
70166;SHT30;57541;47.408;18.822;2023-07-22T03:20:25;16.83;99.99
70166;SHT30;57541;47.408;18.822;2023-07-22T03:20:57;16.89;99.99
70166;SHT30;57541;47.408;18.822;2023-07-22T03:21:29;16.89;99.99